Time;durP1;ratioP1;P1;durP2;ratioP2;P2;SDS_P1;SDS_P2;PMS_P1;PMS_P2;Temp;Humidity;BMP_temperature;BMP_pressure;BME280_temperature;BME280_humidity;BME280_pressure;Samples;Min_cycle;Max_cycle;Signal;HPM_P1;HPM_P2
2023/01/08 00:00:12;;;;;;;;;;;;;;;9.78;79.06;101297.00;4994866;28;19918;-77
2023/01/08 00:02:57;;;;;;;;;;;;;;;9.74;79.10;101287.03;5000016;28;19917;-78
2023/01/08 00:05:41;;;;;;;;;;;;;;;9.88;78.41;101280.53;4991925;28;20405;-77
2023/01/08 00:08:26;;;;;;;;;;;;;;;10.16;77.99;101278.72;4994139;28;19918;-77
2023/01/08 00:11:10;;;;;;;;;;;;;;;10.38;77.23;101272.63;4980334;28;19918;-77
2023/01/08 00:13:55;;;;;;;;;;;;;;;10.14;76.90;101269.25;4983397;28;19919;-77
2023/01/08 00:16:39;;;;;;;;;;;;;;;10.28;76.56;101254.59;4985924;28;19918;-78
2023/01/08 00:19:24;;;;;;;;;;;;;;;10.35;76.08;101256.13;4990655;28;19918;-78
2023/01/08 00:22:08;;;;;;;;;;;;;;;10.24;76.35;101250.06;4993919;28;19918;-77
2023/01/08 00:24:53;;;;;;;;;;;;;;;10.17;76.61;101242.28;4996339;28;19917;-78
2023/01/08 00:27:37;;;;;;;;;;;;;;;10.18;76.64;101237.66;4991872;28;20381;-77
2023/01/08 00:30:22;;;;;;;;;;;;;;;10.13;76.67;101240.44;4999476;28;19917;-78
2023/01/08 00:33:06;;;;;;;;;;;;;;;10.23;76.68;101243.81;4987275;28;19918;-77
2023/01/08 00:35:51;;;;;;;;;;;;;;;10.42;75.88;101242.94;4989258;28;20397;-77
2023/01/08 00:38:35;;;;;;;;;;;;;;;9.94;78.03;101254.09;4996259;28;20300;-77
2023/01/08 00:41:20;;;;;;;;;;;;;;;10.08;78.20;101270.44;4995074;28;19918;-78
2023/01/08 00:44:04;;;;;;;;;;;;;;;10.01;78.37;101267.28;4997800;28;19917;-77
2023/01/08 00:46:49;;;;;;;;;;;;;;;9.96;78.54;101268.19;5012048;28;19933;-77
2023/01/08 00:49:33;;;;;;;;;;;;;;;10.03;78.03;101252.31;5011709;28;19918;-77
2023/01/08 00:52:18;;;;;;;;;;;;;;;10.03;78.62;101260.47;4983264;28;19918;-77
2023/01/08 00:55:02;;;;;;;;;;;;;;;10.02;78.89;101264.28;4990931;28;19918;-77
2023/01/08 00:57:47;;;;;;;;;;;;;;;9.93;79.47;101265.25;4984082;28;19919;-78
2023/01/08 01:00:31;;;;;;;;;;;;;;;9.92;79.78;101269.88;4988806;28;19918;-78
2023/01/08 01:03:16;;;;;;;;;;;;;;;9.60;81.09;101269.88;4990721;28;19918;-78
2023/01/08 01:06:01;;;;;;;;;;;;;;;9.62;80.89;101264.94;4992291;28;19922;-78
2023/01/08 01:08:46;;;;;;;;;;;;;;;9.62;80.82;101248.63;4993056;28;19917;-77
2023/01/08 01:11:31;;;;;;;;;;;;;;;9.74;80.51;101252.53;4989061;28;19918;-77
2023/01/08 01:14:15;;;;;;;;;;;;;;;9.68;80.37;101247.47;4998076;28;19918;-77
2023/01/08 01:17:00;;;;;;;;;;;;;;;9.62;80.63;101251.34;4983257;28;19926;-77
2023/01/08 01:19:44;;;;;;;;;;;;;;;9.64;80.64;101238.31;4999649;28;19917;-78
2023/01/08 01:22:29;;;;;;;;;;;;;;;9.82;80.33;101240.97;5006157;28;19930;-77
2023/01/08 01:25:13;;;;;;;;;;;;;;;9.85;79.93;101239.59;4989235;28;20317;-76
2023/01/08 01:27:57;;;;;;;;;;;;;;;9.80;80.19;101242.41;4989848;28;19918;-77
2023/01/08 01:30:42;;;;;;;;;;;;;;;9.85;80.43;101255.88;4999072;28;19921;-77
2023/01/08 01:33:26;;;;;;;;;;;;;;;9.85;80.22;101253.16;4998401;28;19917;-76
2023/01/08 01:36:11;;;;;;;;;;;;;;;9.62;81.10;101244.03;4988868;28;19918;-77
2023/01/08 01:38:56;;;;;;;;;;;;;;;9.77;80.73;101246.50;4975578;28;19918;-77
2023/01/08 01:41:42;;;;;;;;;;;;;;;9.88;80.38;101245.22;4993517;28;19918;-77
2023/01/08 01:44:36;;;;;;;;;;;;;;;9.98;79.89;101246.97;4996188;28;19918;-77
2023/01/08 01:47:24;;;;;;;;;;;;;;;9.77;80.13;101245.69;4992877;28;20305;-77
2023/01/08 01:50:08;;;;;;;;;;;;;;;9.66;80.71;101241.50;4990388;28;19925;-80
2023/01/08 01:53:05;;;;;;;;;;;;;;;9.67;80.61;101232.28;4993395;28;19918;-77
2023/01/08 01:55:50;;;;;;;;;;;;;;;9.60;80.82;101223.72;4998473;28;19922;-77
2023/01/08 01:58:35;;;;;;;;;;;;;;;9.59;81.07;101222.09;4993463;28;19918;-77
2023/01/08 02:01:20;;;;;;;;;;;;;;;9.65;80.65;101223.63;4997170;28;19922;-77
2023/01/08 02:04:04;;;;;;;;;;;;;;;9.64;80.56;101222.00;4992939;28;19922;-77
2023/01/08 02:06:49;;;;;;;;;;;;;;;9.77;80.41;101223.97;4997098;28;20357;-77
2023/01/08 02:09:38;;;;;;;;;;;;;;;10.06;79.65;101226.44;4996600;28;19917;-77
2023/01/08 02:12:22;;;;;;;;;;;;;;;10.06;78.72;101200.06;4991916;28;19918;-77
2023/01/08 02:15:16;;;;;;;;;;;;;;;10.23;78.99;101194.09;5000970;28;19917;-76
2023/01/08 02:18:06;;;;;;;;;;;;;;;10.32;78.50;101194.19;4981656;28;19918;-77
2023/01/08 02:20:56;;;;;;;;;;;;;;;10.14;78.34;101199.41;4975535;28;19922;-77
2023/01/08 02:23:46;;;;;;;;;;;;;;;10.12;78.43;101204.31;4996008;28;19918;-77
2023/01/08 02:26:32;;;;;;;;;;;;;;;10.31;77.98;101196.09;4994765;28;19921;-77
2023/01/08 02:29:19;;;;;;;;;;;;;;;10.23;77.25;101189.47;4998636;28;19918;-77
2023/01/08 02:32:04;;;;;;;;;;;;;;;10.34;78.21;101181.13;5002394;28;19918;-77
2023/01/08 02:34:48;;;;;;;;;;;;;;;10.28;77.92;101185.84;4982720;28;19919;-77
2023/01/08 02:37:34;;;;;;;;;;;;;;;10.33;77.50;101190.38;4981214;28;19918;-77
2023/01/08 02:40:24;;;;;;;;;;;;;;;10.17;77.64;101177.06;4995125;28;20389;-78
2023/01/08 02:43:11;;;;;;;;;;;;;;;10.25;77.78;101178.31;4982341;28;19918;-77
2023/01/08 02:45:57;;;;;;;;;;;;;;;9.94;78.57;101183.47;4986905;28;20393;-77
2023/01/08 02:48:44;;;;;;;;;;;;;;;10.07;78.04;101182.66;4997361;28;19918;-77
2023/01/08 02:51:46;;;;;;;;;;;;;;;10.16;77.90;101178.19;4985967;28;19922;-77
2023/01/08 02:54:33;;;;;;;;;;;;;;;10.15;77.42;101165.69;4991629;28;19918;-77
2023/01/08 02:57:19;;;;;;;;;;;;;;;10.12;77.53;101169.00;4991940;28;19918;-77
2023/01/08 03:00:04;;;;;;;;;;;;;;;10.07;78.13;101173.72;4995104;28;20289;-78
2023/01/08 03:02:51;;;;;;;;;;;;;;;10.12;77.75;101177.13;4990528;28;19918;-77
2023/01/08 03:05:38;;;;;;;;;;;;;;;10.19;77.85;101164.00;4975769;28;19922;-77
2023/01/08 03:08:22;;;;;;;;;;;;;;;10.19;77.81;101172.16;4975463;28;20374;-77
2023/01/08 03:11:09;;;;;;;;;;;;;;;10.11;77.45;101161.94;4996855;28;19918;-78
2023/01/08 03:13:54;;;;;;;;;;;;;;;10.19;77.89;101152.31;4996886;28;19918;-77
2023/01/08 03:16:41;;;;;;;;;;;;;;;10.00;78.81;101141.53;4983183;28;19917;-77
2023/01/08 03:19:35;;;;;;;;;;;;;;;10.23;78.17;101158.75;4991843;28;20385;-77
2023/01/08 03:22:21;;;;;;;;;;;;;;;10.32;77.78;101161.56;4995609;28;20389;-77
2023/01/08 03:25:07;;;;;;;;;;;;;;;10.39;77.66;101161.97;4977008;28;19918;-77
2023/01/08 03:27:54;;;;;;;;;;;;;;;10.27;77.41;101159.75;4974871;28;19922;-77
2023/01/08 03:30:40;;;;;;;;;;;;;;;10.24;77.69;101169.34;4975284;28;19918;-78
2023/01/08 03:33:26;;;;;;;;;;;;;;;10.37;77.92;101175.06;4999679;28;19918;-77
2023/01/08 03:36:13;;;;;;;;;;;;;;;10.41;77.65;101157.88;4988398;28;19918;-77
2023/01/08 03:39:11;;;;;;;;;;;;;;;10.33;77.71;101146.88;4997971;28;20290;-78
2023/01/08 03:41:58;;;;;;;;;;;;;;;10.41;77.42;101133.41;4983769;28;19922;-77
2023/01/08 03:44:42;;;;;;;;;;;;;;;10.21;78.21;101133.78;4996951;28;20404;-77
2023/01/08 03:47:29;;;;;;;;;;;;;;;10.03;78.25;101154.50;5003441;28;19922;-77
2023/01/08 03:50:16;;;;;;;;;;;;;;;9.99;79.15;101164.34;4994663;28;19921;-77
2023/01/08 03:53:00;;;;;;;;;;;;;;;9.91;79.23;101166.94;4994560;28;20385;-78
2023/01/08 03:55:45;;;;;;;;;;;;;;;9.95;79.08;101174.22;4984645;28;19918;-77
2023/01/08 03:58:29;;;;;;;;;;;;;;;10.10;78.84;101149.47;4989220;28;20382;-77
2023/01/08 04:01:14;;;;;;;;;;;;;;;10.25;78.23;101146.50;4997909;28;19917;-77
2023/01/08 04:03:58;;;;;;;;;;;;;;;10.22;78.04;101144.38;4974851;28;19919;-77
2023/01/08 04:06:42;;;;;;;;;;;;;;;10.32;77.97;101142.53;4993344;28;19922;-77
2023/01/08 04:09:27;;;;;;;;;;;;;;;10.28;77.70;101129.56;4993201;28;19925;-77
2023/01/08 04:12:11;;;;;;;;;;;;;;;10.24;77.86;101127.75;4992926;28;19918;-77
2023/01/08 04:14:56;;;;;;;;;;;;;;;10.40;77.74;101125.53;4996873;28;19918;-77
2023/01/08 04:17:40;;;;;;;;;;;;;;;10.27;77.24;101116.28;4983196;28;19918;-77
2023/01/08 04:20:25;;;;;;;;;;;;;;;10.33;77.79;101125.94;4976922;28;19918;-77
2023/01/08 04:23:09;;;;;;;;;;;;;;;10.43;77.77;101128.44;4974741;28;19922;-77
2023/01/08 04:25:53;;;;;;;;;;;;;;;10.25;77.84;101129.38;4983283;28;19921;-77
2023/01/08 04:28:38;;;;;;;;;;;;;;;10.12;78.15;101122.78;4993448;28;19918;-77
2023/01/08 04:31:22;;;;;;;;;;;;;;;10.09;78.24;101123.41;4992848;28;19918;-77
2023/01/08 04:34:07;;;;;;;;;;;;;;;10.12;78.12;101111.94;4997195;28;19918;-77
2023/01/08 04:36:51;;;;;;;;;;;;;;;10.03;78.59;101115.66;4996552;28;19944;-78
2023/01/08 04:39:35;;;;;;;;;;;;;;;10.05;78.87;101113.44;4994672;28;19918;-78
2023/01/08 04:42:20;;;;;;;;;;;;;;;10.13;78.43;101113.53;4985564;28;19922;-78
2023/01/08 04:45:05;;;;;;;;;;;;;;;10.11;78.52;101096.72;4996736;28;20404;-78
2023/01/08 04:47:56;;;;;;;;;;;;;;;10.11;77.92;101091.28;4990620;28;19926;-78
2023/01/08 04:50:41;;;;;;;;;;;;;;;9.98;78.48;101081.25;4977176;28;19922;-78
2023/01/08 04:53:26;;;;;;;;;;;;;;;9.87;79.58;101071.69;4977686;28;19918;-77
2023/01/08 04:56:10;;;;;;;;;;;;;;;9.94;79.13;101069.38;4981431;28;19918;-78
2023/01/08 04:58:54;;;;;;;;;;;;;;;9.72;80.22;101077.41;4999429;28;19918;-78
2023/01/08 05:01:39;;;;;;;;;;;;;;;9.63;80.85;101081.91;4991032;28;19925;-78
2023/01/08 05:04:23;;;;;;;;;;;;;;;9.65;81.38;101066.16;5002533;28;19918;-78
2023/01/08 05:07:07;;;;;;;;;;;;;;;9.69;80.37;101065.25;4986549;28;19921;-78
2023/01/08 05:09:52;;;;;;;;;;;;;;;9.74;80.72;101077.91;5001730;28;19917;-80
2023/01/08 05:12:36;;;;;;;;;;;;;;;9.78;80.47;101074.28;5009777;28;20285;-80
2023/01/08 05:15:21;;;;;;;;;;;;;;;9.83;79.79;101059.81;5007386;28;19918;-80
2023/01/08 05:18:05;;;;;;;;;;;;;;;9.86;80.14;101060.00;5008891;28;20552;-80
2023/01/08 05:20:50;;;;;;;;;;;;;;;9.78;80.50;101052.56;4996719;28;20421;-80
2023/01/08 05:23:34;;;;;;;;;;;;;;;9.81;79.89;101048.44;5002095;28;19918;-80
2023/01/08 05:26:19;;;;;;;;;;;;;;;9.65;80.70;101058.78;5009726;28;19943;-80
2023/01/08 05:29:03;;;;;;;;;;;;;;;9.82;80.39;101055.47;5012711;28;19918;-80
2023/01/08 05:31:48;;;;;;;;;;;;;;;9.93;80.15;101064.22;4999063;28;19917;-80
2023/01/08 05:34:32;;;;;;;;;;;;;;;10.03;80.12;101059.41;5012509;28;19917;-80
2023/01/08 05:37:17;;;;;;;;;;;;;;;10.06;79.44;101064.22;5020519;28;19926;-80
2023/01/08 05:40:02;;;;;;;;;;;;;;;10.09;79.27;101065.53;5010539;28;19921;-80
2023/01/08 05:42:46;;;;;;;;;;;;;;;10.03;78.92;101067.56;5005738;28;19917;-80
2023/01/08 05:45:31;;;;;;;;;;;;;;;9.99;79.17;101065.75;4998606;28;19917;-78
2023/01/08 05:48:15;;;;;;;;;;;;;;;9.96;79.77;101071.75;4993929;28;19925;-78
2023/01/08 05:51:00;;;;;;;;;;;;;;;9.87;80.55;101064.34;4997421;28;19922;-78
2023/01/08 05:53:45;;;;;;;;;;;;;;;9.92;80.18;101066.13;4990692;28;19917;-78
2023/01/08 05:56:29;;;;;;;;;;;;;;;9.81;80.10;101067.44;5007780;28;19917;-79
2023/01/08 05:59:13;;;;;;;;;;;;;;;9.91;79.73;101058.28;5005563;28;19918;-78
2023/01/08 06:01:58;;;;;;;;;;;;;;;9.87;79.99;101058.09;4994420;28;19918;-78
2023/01/08 06:04:42;;;;;;;;;;;;;;;9.84;80.02;101061.44;4990454;28;19917;-78
2023/01/08 06:07:30;;;;;;;;;;;;;;;9.91;80.48;101052.84;4999334;28;19922;-78
2023/01/08 06:10:14;;;;;;;;;;;;;;;9.89;79.76;101058.59;5001670;28;19921;-78
2023/01/08 06:12:58;;;;;;;;;;;;;;;9.88;79.72;101059.72;4992738;28;19918;-78
2023/01/08 06:15:43;;;;;;;;;;;;;;;9.85;79.52;101065.75;4990999;28;20317;-78
2023/01/08 06:18:28;;;;;;;;;;;;;;;9.92;79.88;101066.13;5010480;28;19918;-79
2023/01/08 06:21:12;;;;;;;;;;;;;;;10.10;79.74;101059.81;5002140;28;19917;-79
2023/01/08 06:23:57;;;;;;;;;;;;;;;10.20;79.55;101062.34;5001526;28;19918;-78
2023/01/08 06:26:41;;;;;;;;;;;;;;;10.24;79.06;101057.91;5009724;28;19921;-78
2023/01/08 06:29:25;;;;;;;;;;;;;;;10.27;78.92;101046.41;4992334;28;19918;-79
2023/01/08 06:32:10;;;;;;;;;;;;;;;10.23;79.08;101033.75;4979871;28;19922;-78
2023/01/08 06:34:54;;;;;;;;;;;;;;;10.25;78.80;101035.06;4985229;28;19922;-78
2023/01/08 06:37:38;;;;;;;;;;;;;;;10.16;78.08;101052.38;4998770;28;19926;-79
2023/01/08 06:40:23;;;;;;;;;;;;;;;10.01;78.31;101042.59;4998265;28;20380;-79
2023/01/08 06:43:07;;;;;;;;;;;;;;;10.01;79.45;101026.28;4993511;28;19922;-78
2023/01/08 06:45:53;;;;;;;;;;;;;;;10.19;79.92;101011.81;4994893;28;19917;-79
2023/01/08 06:48:38;;;;;;;;;;;;;;;10.23;79.38;101050.84;4993762;28;19937;-79
2023/01/08 06:51:22;;;;;;;;;;;;;;;10.03;78.71;101070.28;4975916;28;19918;-79
2023/01/08 06:54:06;;;;;;;;;;;;;;;9.91;79.22;101052.84;4992609;28;19926;-79
2023/01/08 06:56:51;;;;;;;;;;;;;;;9.98;78.99;101045.91;4993150;28;19918;-78
2023/01/08 06:59:35;;;;;;;;;;;;;;;10.04;79.48;101035.75;4992611;28;20424;-78
2023/01/08 07:02:19;;;;;;;;;;;;;;;10.15;79.81;101032.53;4997417;28;19917;-79
2023/01/08 07:05:04;;;;;;;;;;;;;;;10.15;78.82;101037.97;4997466;28;19917;-79
2023/01/08 07:07:48;;;;;;;;;;;;;;;10.08;78.84;101040.28;4983282;28;19922;-79
2023/01/08 07:10:33;;;;;;;;;;;;;;;10.01;78.58;101031.72;4998310;28;19925;-79
2023/01/08 07:13:17;;;;;;;;;;;;;;;10.08;78.38;101020.44;4989638;28;19918;-78
2023/01/08 07:16:06;;;;;;;;;;;;;;;10.13;78.47;101013.00;4991361;28;19917;-78
2023/01/08 07:18:50;;;;;;;;;;;;;;;10.08;78.32;101010.38;4985772;28;19922;-79
2023/01/08 07:21:35;;;;;;;;;;;;;;;9.97;78.48;101008.19;5006271;28;19921;-80
2023/01/08 07:24:21;;;;;;;;;;;;;;;9.99;78.20;101012.22;4999272;28;20289;-82
2023/01/08 07:27:06;;;;;;;;;;;;;;;10.03;78.79;101018.66;5002752;28;19929;-80
2023/01/08 07:29:50;;;;;;;;;;;;;;;10.17;78.22;101019.47;5007020;28;20293;-80
2023/01/08 07:32:35;;;;;;;;;;;;;;;10.20;78.22;101016.16;4993969;28;19918;-80
2023/01/08 07:35:19;;;;;;;;;;;;;;;10.09;77.90;101030.22;4989145;28;19917;-80
2023/01/08 07:38:04;;;;;;;;;;;;;;;10.07;78.35;101032.41;4998514;28;20401;-80
2023/01/08 07:40:48;;;;;;;;;;;;;;;10.14;78.46;101032.81;5002470;28;19917;-80
2023/01/08 07:43:34;;;;;;;;;;;;;;;10.14;77.79;101036.34;5004727;28;19918;-80
2023/01/08 07:46:18;;;;;;;;;;;;;;;10.10;77.90;101035.34;5006528;28;19922;-81
2023/01/08 07:49:04;;;;;;;;;;;;;;;10.13;77.79;101037.44;4995415;28;19918;-80
2023/01/08 07:51:48;;;;;;;;;;;;;;;10.00;77.93;101046.44;4999148;28;19917;-80
2023/01/08 07:54:33;;;;;;;;;;;;;;;10.00;78.62;101040.19;5012042;28;19925;-80
2023/01/08 07:57:17;;;;;;;;;;;;;;;10.06;78.03;101036.25;4995014;28;19917;-80
2023/01/08 08:00:01;;;;;;;;;;;;;;;10.09;77.99;101022.06;5001084;28;20316;-80
2023/01/08 08:02:46;;;;;;;;;;;;;;;10.08;78.31;101026.69;5001029;28;19921;-80
2023/01/08 08:05:31;;;;;;;;;;;;;;;10.07;78.40;101040.56;5002303;28;19922;-80
2023/01/08 08:08:17;;;;;;;;;;;;;;;9.97;77.99;101025.28;5012159;28;19921;-81
2023/01/08 08:11:02;;;;;;;;;;;;;;;9.98;78.19;101015.22;5009243;28;19921;-80
2023/01/08 08:13:48;;;;;;;;;;;;;;;9.93;78.19;101007.19;4983120;28;19918;-80
2023/01/08 08:16:33;;;;;;;;;;;;;;;9.85;78.89;100995.91;5012213;28;19918;-80
2023/01/08 08:19:18;;;;;;;;;;;;;;;9.90;78.80;101002.38;5004979;28;19918;-80
2023/01/08 08:22:02;;;;;;;;;;;;;;;9.72;79.42;101004.06;5006369;28;19918;-80
2023/01/08 08:24:47;;;;;;;;;;;;;;;9.75;79.28;101003.50;5002059;28;19917;-79
2023/01/08 08:27:31;;;;;;;;;;;;;;;9.70;79.70;101006.31;5000530;28;20300;-80
2023/01/08 08:30:15;;;;;;;;;;;;;;;9.82;79.44;100996.53;5008687;28;19918;-79
2023/01/08 08:33:01;;;;;;;;;;;;;;;9.83;79.11;100987.28;5006981;28;20581;-80
2023/01/08 08:35:49;;;;;;;;;;;;;;;9.90;78.57;100997.75;4993525;28;19918;-80
2023/01/08 08:38:36;;;;;;;;;;;;;;;9.86;78.56;100991.28;5010130;28;20381;-80
2023/01/08 08:41:20;;;;;;;;;;;;;;;9.81;79.27;100983.25;4997760;28;19917;-79
2023/01/08 08:44:05;;;;;;;;;;;;;;;9.81;79.52;100983.25;5014574;28;19918;-79
2023/01/08 08:46:49;;;;;;;;;;;;;;;9.76;79.58;100980.63;5000437;28;19921;-79
2023/01/08 08:49:35;;;;;;;;;;;;;;;9.78;79.26;100979.25;4995744;28;19918;-79
2023/01/08 08:52:19;;;;;;;;;;;;;;;9.83;79.23;100986.47;4975411;28;19918;-79
2023/01/08 08:55:05;;;;;;;;;;;;;;;9.82;78.74;100980.25;4992864;28;19918;-79
2023/01/08 08:57:50;;;;;;;;;;;;;;;9.77;77.38;100971.38;5010941;28;20336;-79
2023/01/08 09:00:34;;;;;;;;;;;;;;;9.84;77.22;100974.50;5002482;28;20369;-80
2023/01/08 09:03:19;;;;;;;;;;;;;;;9.84;77.01;100982.66;5008122;28;19918;-81
2023/01/08 09:06:03;;;;;;;;;;;;;;;9.82;76.97;100976.72;4994567;28;20305;-79
2023/01/08 09:08:48;;;;;;;;;;;;;;;9.83;77.35;100968.28;4996815;28;19921;-80
2023/01/08 09:11:33;;;;;;;;;;;;;;;9.86;77.29;100970.38;5009596;28;19922;-78
2023/01/08 09:14:17;;;;;;;;;;;;;;;9.79;77.94;100969.19;4999662;28;19918;-79
2023/01/08 09:17:02;;;;;;;;;;;;;;;9.84;77.21;100966.38;4993703;28;19922;-79
2023/01/08 09:19:46;;;;;;;;;;;;;;;9.82;76.91;100966.66;4996545;28;20289;-78
2023/01/08 09:22:31;;;;;;;;;;;;;;;9.84;76.14;100955.50;4999808;28;20308;-78
2023/01/08 09:25:16;;;;;;;;;;;;;;;9.85;75.97;100949.75;5002652;28;19918;-79
2023/01/08 09:28:03;;;;;;;;;;;;;;;9.79;75.58;100936.59;4998762;28;19921;-78
2023/01/08 09:30:48;;;;;;;;;;;;;;;9.80;75.37;100943.63;5003925;28;19922;-79
2023/01/08 09:33:33;;;;;;;;;;;;;;;9.88;75.02;100934.75;5006655;28;19918;-79
2023/01/08 09:36:18;;;;;;;;;;;;;;;9.78;75.51;100930.34;4996876;28;19918;-78
2023/01/08 09:39:03;;;;;;;;;;;;;;;9.82;75.76;100944.13;5002393;28;19918;-80
2023/01/08 09:41:48;;;;;;;;;;;;;;;9.73;75.97;100918.81;5004083;28;19918;-78
2023/01/08 09:44:36;;;;;;;;;;;;;;;9.77;76.62;100917.06;5007254;28;19918;-79
2023/01/08 09:47:26;;;;;;;;;;;;;;;9.85;77.14;100941.59;4998505;28;19922;-78
2023/01/08 09:50:12;;;;;;;;;;;;;;;9.84;76.19;100922.91;5002717;28;19925;-79
2023/01/08 09:52:58;;;;;;;;;;;;;;;9.83;76.33;100918.56;5024064;28;19917;-80
2023/01/08 09:55:43;;;;;;;;;;;;;;;9.84;75.68;100914.75;5014741;28;19918;-79
2023/01/08 09:58:39;;;;;;;;;;;;;;;9.93;75.56;100907.50;5007978;28;19918;-80
2023/01/08 10:01:25;;;;;;;;;;;;;;;9.79;75.70;100906.72;5013277;28;19918;-79
2023/01/08 10:04:17;;;;;;;;;;;;;;;9.75;75.81;100895.66;5007916;28;19917;-78
2023/01/08 10:07:25;;;;;;;;;;;;;;;9.66;75.48;100899.38;5020255;28;19921;-78
2023/01/08 10:10:21;;;;;;;;;;;;;;;9.74;74.85;100899.50;5005862;28;19925;-79
2023/01/08 10:13:08;;;;;;;;;;;;;;;9.65;75.37;100892.38;5007725;28;19917;-79
2023/01/08 10:15:53;;;;;;;;;;;;;;;9.65;75.04;100892.38;5005996;28;19918;-80
2023/01/08 10:18:39;;;;;;;;;;;;;;;9.60;75.46;100878.91;5010000;28;19917;-79
2023/01/08 10:21:28;;;;;;;;;;;;;;;9.60;75.79;100879.69;5004531;28;20389;-79
2023/01/08 10:24:13;;;;;;;;;;;;;;;9.56;75.79;100883.31;5009805;28;20405;-79
2023/01/08 10:27:05;;;;;;;;;;;;;;;9.70;77.96;100875.97;5003100;28;19922;-79
2023/01/08 10:29:50;;;;;;;;;;;;;;;9.88;77.85;100875.00;5002819;28;19914;-78
2023/01/08 10:32:36;;;;;;;;;;;;;;;9.97;77.60;100858.78;5006118;28;19917;-78
2023/01/08 10:35:32;;;;;;;;;;;;;;;10.11;77.42;100871.19;5004679;28;19918;-78
2023/01/08 10:38:29;;;;;;;;;;;;;;;10.35;78.10;100862.78;4997272;28;19926;-77
2023/01/08 10:41:14;;;;;;;;;;;;;;;10.73;80.12;100865.88;4994635;28;19921;-79
2023/01/08 10:44:01;;;;;;;;;;;;;;;10.64;76.58;100870.47;4999803;28;19918;-78
2023/01/08 10:46:49;;;;;;;;;;;;;;;10.47;75.18;100863.00;4999319;28;19918;-78
2023/01/08 10:49:42;;;;;;;;;;;;;;;10.48;75.97;100856.47;5009062;28;19917;-78
2023/01/08 10:52:31;;;;;;;;;;;;;;;10.81;77.65;100853.44;5021498;28;19917;-79
2023/01/08 10:55:24;;;;;;;;;;;;;;;10.46;74.97;100849.75;5002174;28;19917;-78
2023/01/08 10:58:08;;;;;;;;;;;;;;;10.34;75.21;100850.31;5017699;28;19929;-79
2023/01/08 11:00:53;;;;;;;;;;;;;;;10.38;75.33;100850.47;5005335;28;19917;-79
2023/01/08 11:03:39;;;;;;;;;;;;;;;10.33;75.49;100853.31;4999624;28;19918;-79
2023/01/08 11:06:33;;;;;;;;;;;;;;;11.06;82.48;100850.03;4998235;28;19925;-79
2023/01/08 11:09:20;;;;;;;;;;;;;;;11.44;76.35;100840.19;5011047;28;19922;-78
2023/01/08 11:12:22;;;;;;;;;;;;;;;10.86;74.37;100826.91;5016354;28;19918;-79
2023/01/08 11:15:25;;;;;;;;;;;;;;;12.35;82.60;100837.31;5020227;28;19918;-78
2023/01/08 11:18:16;;;;;;;;;;;;;;;11.57;71.62;100833.00;5022089;28;19922;-80
2023/01/08 11:21:06;;;;;;;;;;;;;;;11.22;72.31;100820.44;5012481;28;19922;-79
2023/01/08 11:24:20;;;;;;;;;;;;;;;11.17;72.73;100807.81;5012581;28;19917;-79
2023/01/08 11:27:07;;;;;;;;;;;;;;;11.11;73.00;100788.09;5016880;28;20385;-78
2023/01/08 11:29:52;;;;;;;;;;;;;;;11.53;78.86;100772.91;4994353;28;19926;-78
2023/01/08 11:32:39;;;;;;;;;;;;;;;11.36;75.19;100745.69;5007661;28;19922;-80
2023/01/08 11:35:27;;;;;;;;;;;;;;;11.08;73.81;100750.59;4999543;28;19918;-82
2023/01/08 11:38:12;;;;;;;;;;;;;;;10.86;73.76;100760.81;4995838;28;20385;-81
2023/01/08 11:41:09;;;;;;;;;;;;;;;10.67;74.29;100766.50;5004954;28;19922;-80
2023/01/08 11:43:57;;;;;;;;;;;;;;;10.19;76.06;100758.28;4996394;28;19918;-80
2023/01/08 11:46:51;;;;;;;;;;;;;;;10.40;75.83;100762.06;4996827;28;19921;-79
2023/01/08 11:49:53;;;;;;;;;;;;;;;10.02;77.37;100758.94;4997638;28;19918;-79
2023/01/08 11:52:54;;;;;;;;;;;;;;;9.83;78.35;100752.91;4996598;28;19926;-79
2023/01/08 11:55:44;;;;;;;;;;;;;;;9.82;78.46;100751.31;5023083;28;19926;-79
2023/01/08 11:58:31;;;;;;;;;;;;;;;9.87;78.14;100751.19;4994796;28;19926;-79
2023/01/08 12:01:21;;;;;;;;;;;;;;;10.23;77.36;100756.53;4997408;28;20312;-79
2023/01/08 12:04:25;;;;;;;;;;;;;;;10.25;77.07;100754.31;4992096;28;20608;-80
2023/01/08 12:07:09;;;;;;;;;;;;;;;10.26;77.07;100754.00;4988775;28;19922;-79
2023/01/08 12:10:08;;;;;;;;;;;;;;;10.26;77.07;100747.75;4996506;28;19917;-79
2023/01/08 12:12:58;;;;;;;;;;;;;;;9.96;77.72;100724.06;5004536;28;20374;-79
2023/01/08 12:15:51;;;;;;;;;;;;;;;9.88;78.55;100725.63;4994749;28;19918;-79
2023/01/08 12:18:45;;;;;;;;;;;;;;;10.04;78.37;100726.03;4988055;28;20316;-79
2023/01/08 12:21:39;;;;;;;;;;;;;;;10.07;77.87;100712.63;4994038;28;20390;-80
2023/01/08 12:24:32;;;;;;;;;;;;;;;10.24;77.58;100710.03;5012630;28;19917;-80
2023/01/08 12:27:20;;;;;;;;;;;;;;;10.26;77.01;100699.63;4997654;28;19922;-80
2023/01/08 12:30:23;;;;;;;;;;;;;;;10.25;77.18;100692.63;5001485;28;19917;-79
2023/01/08 12:33:14;;;;;;;;;;;;;;;10.26;77.77;100696.91;4993442;28;19918;-79
2023/01/08 12:36:01;;;;;;;;;;;;;;;10.17;77.99;100690.66;4987114;28;20389;-79
2023/01/08 12:38:52;;;;;;;;;;;;;;;10.20;77.78;100692.75;4991686;28;19918;-79
2023/01/08 12:41:38;;;;;;;;;;;;;;;10.13;78.56;100694.28;4993405;28;19918;-79
2023/01/08 12:44:25;;;;;;;;;;;;;;;9.91;79.53;100695.13;5001202;28;20309;-80
2023/01/08 12:47:15;;;;;;;;;;;;;;;9.98;81.66;100702.84;5010954;28;19929;-79
2023/01/08 12:50:02;;;;;;;;;;;;;;;10.12;82.78;100701.63;4983821;28;19922;-80
2023/01/08 12:52:57;;;;;;;;;;;;;;;10.69;83.86;100693.56;4988954;28;19918;-79
2023/01/08 12:55:52;;;;;;;;;;;;;;;10.99;82.88;100689.13;4999960;28;19921;-80
2023/01/08 12:58:58;;;;;;;;;;;;;;;11.77;83.99;100682.56;5007133;28;19918;-79
2023/01/08 13:01:45;;;;;;;;;;;;;;;12.92;80.66;100691.53;5005364;28;20312;-79
2023/01/08 13:04:50;;;;;;;;;;;;;;;13.26;75.65;100711.22;4991681;28;19918;-80
2023/01/08 13:07:41;;;;;;;;;;;;;;;13.75;77.25;100707.94;5001178;28;19921;-80
2023/01/08 13:10:32;;;;;;;;;;;;;;;14.25;75.69;100694.84;5013156;28;19917;-79
2023/01/08 13:13:28;;;;;;;;;;;;;;;14.14;70.24;100674.53;5002395;28;20457;-79
2023/01/08 13:16:18;;;;;;;;;;;;;;;14.67;74.93;100683.69;5002790;28;21915;-80
2023/01/08 13:19:03;;;;;;;;;;;;;;;14.74;69.04;100700.34;5013908;28;19926;-80
2023/01/08 13:21:53;;;;;;;;;;;;;;;14.91;73.37;100697.38;5004635;28;19921;-79
2023/01/08 13:24:39;;;;;;;;;;;;;;;13.26;66.89;100685.84;5002884;28;20308;-79
2023/01/08 13:27:28;;;;;;;;;;;;;;;12.49;69.66;100681.69;5005656;28;19922;-79
2023/01/08 13:30:31;;;;;;;;;;;;;;;12.31;72.19;100682.88;5004144;28;19921;-79
2023/01/08 13:33:22;;;;;;;;;;;;;;;12.70;78.56;100674.31;5002104;28;19918;-80
2023/01/08 13:36:14;;;;;;;;;;;;;;;13.05;75.01;100663.19;5004575;28;19918;-80
2023/01/08 13:38:58;;;;;;;;;;;;;;;13.93;77.55;100655.47;4993699;28;19918;-79
2023/01/08 13:41:54;;;;;;;;;;;;;;;14.89;72.68;100655.81;5014208;28;19937;-80
2023/01/08 13:44:41;;;;;;;;;;;;;;;14.86;65.65;100653.78;5006556;28;19930;-80
2023/01/08 13:47:31;;;;;;;;;;;;;;;14.27;69.61;100656.22;5004433;28;20313;-80
2023/01/08 13:50:19;;;;;;;;;;;;;;;15.04;70.26;100654.31;5005126;28;19918;-80
2023/01/08 13:53:06;;;;;;;;;;;;;;;15.56;69.37;100652.31;4998238;28;19918;-79
2023/01/08 13:56:03;;;;;;;;;;;;;;;15.92;66.48;100651.31;4993038;28;19930;-80
2023/01/08 13:58:52;;;;;;;;;;;;;;;16.23;65.62;100645.06;4998886;28;19918;-80
2023/01/08 14:01:41;;;;;;;;;;;;;;;14.52;61.04;100653.16;5007530;28;19918;-80
2023/01/08 14:04:25;;;;;;;;;;;;;;;14.67;70.29;100656.34;5013572;28;19918;-80
2023/01/08 14:07:12;;;;;;;;;;;;;;;13.61;63.32;100662.53;4995739;28;20308;-80
2023/01/08 14:10:12;;;;;;;;;;;;;;;12.50;66.84;100656.00;4994688;28;19918;-80
2023/01/08 14:13:05;;;;;;;;;;;;;;;12.95;70.82;100649.94;4994566;28;19918;-80
2023/01/08 14:15:49;;;;;;;;;;;;;;;12.37;67.23;100648.84;4991570;28;19918;-80
2023/01/08 14:18:34;;;;;;;;;;;;;;;13.02;69.71;100645.53;5021995;28;19917;-80
2023/01/08 14:21:20;;;;;;;;;;;;;;;12.32;67.31;100644.38;4999612;28;19918;-80